Etusivu
METAR-TAF:

METAR-TAF

Lentoasemat :

Sønderborg, Tanska

Leveyspiiri: 54-58N, Pituuspiiri: 009-47E, korkeus merenpinnasta: 7 m

Tämänhetkinen sää

Tämä raportti tehtiin 36 minuuttia sitten, kello 07.50 UTC
Tuuli 11 kn idästä/kaakosta
Lämpötila 14°C
Kosteus 47%
Ilmanpaine 1019 hPa
Näkyvyys 10 km tai enemmän

METAR: EKSB 220750Z AUTO 11011KT 9999NDV NCD 14/03 Q1019

Aika: 10:26 (08:26 UTC)

Sääennuste

Tämä raportti tehtiin 20 tuntia ja 30 minuuttia sitten, kello 11.56 UTC
Ennuste voimassa 21. päivästä klo 12 UTC - 21. päivään klo 16 UTC
Tuuli 6 kn idästä/kaakosta
Näkyvyys 10 km tai enemmän
ei pilviä alle 1500 m:ssä eikä cumulonimbus-pilviä

TAF: EKSB 211156Z 2112/2116 11006KT CAVOK

Säähavainnot ja -ennusteet yli 4000 lentoasemalta (METAR- ja TAF-raportit).

Käytössä olevat sääasemat on merkitty karttaan keltaisilla ja punaisilla pisteillä.

Aseta hiiri pisteen päälle nähdäksesi sääaseman nimen.

Klikkaa sitten nähdäksesi säähavainnot ja -ennusteet.

Kartan vaihtaminen: klikkaa mustalla rastilla varustettuja vihreitä pisteitä, niin voit zoomata sisään; viivalla varustettua vihreää pistettä, niin voit zoomata ulos tai vihreitä nuolia, niin pääset viereisille kartoille.


METAR-TAF: